Time;durP1;ratioP1;P1;durP2;ratioP2;P2;SDS_P1;SDS_P2;PMS_P1;PMS_P2;Temp;Humidity;BMP_temperature;BMP_pressure;BME280_temperature;BME280_humidity;BME280_pressure;Samples;Min_cycle;Max_cycle;Signal;HPM_P1;HPM_P2
2022/06/27 00:02:24;;;;;;;1.15;0.80;;;21.70;75.80;;;20.68;61.23;100120.03;10204293;28;96627;-93
2022/06/27 00:07:27;;;;;;;0.85;0.70;;;21.70;75.60;;;20.68;61.44;100132.72;10199541;28;96539;-95
2022/06/27 00:12:31;;;;;;;3.10;0.80;;;21.70;75.70;;;20.73;61.41;100138.22;10221890;28;97359;-96
2022/06/27 00:17:34;;;;;;;2.13;1.08;;;21.70;76.00;;;20.75;61.96;100131.56;10203121;28;97073;-96
2022/06/27 00:22:38;;;;;;;2.15;0.95;;;21.80;77.80;;;20.72;62.06;100136.59;10206816;28;96452;-96
2022/06/27 00:27:42;;;;;;;1.48;0.85;;;21.70;76.90;;;20.71;61.89;100151.97;10201113;28;96506;-93
2022/06/27 00:32:48;;;;;;;1.83;1.20;;;21.70;77.10;;;20.67;62.12;100145.41;10183681;28;96998;-95
2022/06/27 00:37:51;;;;;;;1.35;0.88;;;21.70;79.10;;;20.60;62.53;100146.56;10201837;28;96664;-96
2022/06/27 00:42:55;;;;;;;1.25;0.70;;;21.70;78.00;;;20.53;62.96;100157.50;10187068;28;97240;-96
2022/06/27 00:47:59;;;;;;;1.35;0.93;;;21.60;79.10;;;20.37;63.60;100158.97;10207648;28;96630;-96
2022/06/27 00:53:05;;;;;;;0.98;0.80;;;21.50;78.70;;;20.31;63.63;100154.50;10204799;28;96612;-96
2022/06/27 00:58:09;;;;;;;1.38;0.98;;;21.40;78.70;;;20.29;63.41;100164.72;10203795;28;96108;-96
2022/06/27 01:03:22;;;;;;;1.40;0.93;;;21.40;79.30;;;20.25;63.39;100160.81;10227410;28;96375;-96
2022/06/27 01:08:25;;;;;;;2.65;1.08;;;21.30;79.80;;;20.24;63.59;100165.41;10193536;28;96576;-96
2022/06/27 01:13:30;;;;;;;2.03;0.80;;;21.30;79.90;;;20.26;63.66;100168.69;10206235;28;96655;-96
2022/06/27 01:18:34;;;;;;;1.77;1.05;;;21.30;80.20;;;20.21;64.27;100165.03;10214298;28;96435;-96
2022/06/27 01:23:39;;;;;;;1.13;0.95;;;21.30;80.90;;;20.15;64.79;100160.56;10215881;28;96232;-96
2022/06/27 01:28:43;;;;;;;1.10;1.00;;;21.20;82.10;;;20.11;64.84;100149.44;10226647;28;96571;-96
2022/06/27 01:33:46;;;;;;;1.20;0.93;;;21.10;82.20;;;20.07;64.98;100155.50;10210626;28;96596;-96
2022/06/27 01:38:51;;;;;;;1.60;1.20;;;21.10;82.70;;;20.03;65.21;100164.09;10227112;28;97490;-96
2022/06/27 01:43:55;;;;;;;1.10;0.85;;;21.00;83.10;;;20.02;65.44;100169.69;10229973;28;96433;-96
2022/06/27 01:48:58;;;;;;;1.77;1.30;;;21.00;83.40;;;20.00;65.42;100163.72;10199371;28;96756;-96
2022/06/27 01:54:01;;;;;;;1.83;1.23;;;21.00;84.10;;;19.96;65.71;100163.34;10224068;28;96450;-96
2022/06/27 01:59:08;;;;;;;1.92;1.30;;;21.00;84.20;;;19.99;65.97;100165.59;10230153;28;96425;-96
2022/06/27 02:04:15;;;;;;;4.07;1.70;;;21.00;84.80;;;19.95;65.74;100161.69;10215779;28;96580;-96
2022/06/27 02:09:18;;;;;;;3.33;1.60;;;21.00;84.90;;;19.95;66.53;100172.47;10219815;28;96435;-95
2022/06/27 02:14:24;;;;;;;2.58;1.70;;;21.00;86.10;;;19.90;66.29;100176.91;10202782;28;96682;-96
2022/06/27 02:19:27;;;;;;;2.40;1.50;;;20.90;86.00;;;19.85;66.87;100180.31;10221179;28;96815;-95
2022/06/27 02:24:31;;;;;;;2.88;1.02;;;20.90;86.80;;;19.80;66.96;100182.06;10205470;28;96582;-95
2022/06/27 02:29:33;;;;;;;3.30;1.02;;;20.80;86.90;;;19.76;66.77;100178.97;10209788;28;96449;-95
2022/06/27 02:34:38;;;;;;;2.03;1.50;;;20.80;87.50;;;19.69;66.96;100186.34;10215979;28;96547;-94
2022/06/27 02:39:44;;;;;;;1.95;1.20;;;20.70;88.40;;;19.64;67.56;100180.81;10223469;28;96632;-94
2022/06/27 02:44:50;;;;;;;3.08;1.38;;;20.60;88.60;;;19.58;67.52;100182.53;10216766;28;96765;-95
2022/06/27 02:49:53;;;;;;;2.08;1.40;;;20.60;89.30;;;19.57;68.21;100193.53;10217907;28;97650;-94
2022/06/27 02:55:09;;;;;;;2.03;1.40;;;20.60;90.00;;;19.56;67.99;100191.88;10239073;28;97698;-94
2022/06/27 03:00:13;;;;;;;1.80;1.33;;;20.60;90.20;;;19.53;68.03;100195.84;10250338;28;96566;-94
2022/06/27 03:05:16;;;;;;;2.50;1.42;;;20.50;90.30;;;19.48;68.74;100198.38;10233033;28;96415;-95
2022/06/27 03:10:23;;;;;;;2.33;1.30;;;20.50;91.10;;;19.41;69.16;100214.63;10260151;28;96845;-95
2022/06/27 03:15:26;;;;;;;3.50;1.50;;;20.40;91.30;;;19.37;69.22;100210.75;10182017;28;97653;-96
2022/06/27 03:20:29;;;;;;;3.15;1.27;;;20.40;91.70;;;19.36;69.94;100221.75;10217168;28;96474;-96
2022/06/27 03:25:33;;;;;;;2.25;1.23;;;20.40;92.50;;;19.30;70.26;100234.25;10184825;28;96582;-94
2022/06/27 03:30:36;;;;;;;2.05;1.40;;;20.30;92.60;;;19.26;70.49;100233.06;10204077;28;97191;-93
2022/06/27 03:35:43;;;;;;;2.30;1.50;;;20.30;93.20;;;19.31;70.93;100238.59;10188831;28;96727;-93
2022/06/27 03:40:47;;;;;;;2.63;1.55;;;20.30;93.90;;;19.40;71.18;100228.34;10184128;28;96717;-92
2022/06/27 03:45:55;;;;;;;2.17;1.40;;;20.40;94.10;;;19.50;71.31;100229.47;10205041;28;97194;-93
2022/06/27 03:50:58;;;;;;;2.42;1.48;;;20.50;94.30;;;19.62;71.29;100223.34;10205042;28;96579;-93
2022/06/27 03:56:04;;;;;;;2.50;1.50;;;20.60;94.80;;;19.69;71.60;100226.78;10200265;28;96659;-92
2022/06/27 04:01:08;;;;;;;1.75;1.00;;;20.70;95.40;;;19.78;72.12;100231.63;10180334;28;96546;-91
2022/06/27 04:06:14;;;;;;;2.45;1.20;;;20.70;95.70;;;19.88;71.65;100236.47;10218253;28;96701;-91
2022/06/27 04:11:17;;;;;;;1.42;1.13;;;20.80;96.00;;;20.00;71.28;100250.84;10187300;28;96664;-88
2022/06/27 04:16:21;;;;;;;2.15;1.27;;;20.90;95.90;;;20.15;70.87;100252.28;10203576;28;97556;-89
2022/06/27 04:21:28;;;;;;;1.70;1.08;;;21.00;95.70;;;20.30;69.94;100260.81;10214988;28;98140;-89
2022/06/27 04:26:31;;;;;;;1.30;0.90;;;21.20;95.30;;;20.43;69.69;100252.50;10185586;28;98139;-89
2022/06/27 04:31:34;;;;;;;1.98;1.40;;;21.30;95.20;;;20.58;69.27;100261.03;10198141;28;96663;-89
2022/06/27 04:36:37;;;;;;;2.08;1.00;;;21.50;94.90;;;20.73;68.65;100265.97;10198332;28;96631;-87
2022/06/27 04:41:41;;;;;;;1.30;1.08;;;21.60;94.70;;;20.89;68.11;100261.78;10198679;28;97953;-90
2022/06/27 04:46:48;;;;;;;1.77;1.27;;;21.80;94.40;;;21.09;67.86;100259.53;10213740;28;96632;-88
2022/06/27 04:51:52;;;;;;;2.17;1.00;;;22.00;94.40;;;21.32;67.94;100260.59;10180259;28;97392;-88
2022/06/27 04:56:55;;;;;;;1.42;1.20;;;22.20;94.30;;;21.50;67.76;100263.16;10198169;28;98628;-88
2022/06/27 05:01:58;;;;;;;2.20;1.27;;;22.40;94.40;;;21.67;67.29;100257.03;10194933;28;98388;-88
2022/06/27 05:07:01;;;;;;;1.33;1.10;;;22.50;94.20;;;21.82;66.65;100260.84;10196138;28;97210;-89
2022/06/27 05:12:04;;;;;;;4.15;1.50;;;22.70;93.90;;;21.95;66.68;100256.22;10196662;28;96627;-87
2022/06/27 05:17:07;;;;;;;2.03;1.23;;;22.80;93.90;;;22.09;66.55;100258.44;10209790;28;97345;-88
2022/06/27 05:22:11;;;;;;;1.75;1.13;;;23.00;93.70;;;22.25;66.40;100261.41;10183549;28;97472;-88
2022/06/27 05:27:15;;;;;;;2.08;1.33;;;23.10;93.70;;;22.38;66.05;100263.81;10198103;28;97423;-88
2022/06/27 05:32:19;;;;;;;2.58;1.30;;;23.30;93.40;;;22.54;65.54;100260.28;10199169;28;96458;-88
2022/06/27 05:37:22;;;;;;;1.65;1.23;;;23.40;93.30;;;22.70;65.18;100258.69;10195254;28;96906;-88
2022/06/27 05:42:25;;;;;;;1.88;1.42;;;23.60;93.10;;;22.78;64.95;100260.16;10197455;28;96975;-88
2022/06/27 05:47:29;;;;;;;1.75;1.10;;;23.70;92.90;;;22.90;64.78;100267.16;10198560;28;96484;-87
2022/06/27 05:52:32;;;;;;;1.90;1.23;;;23.80;92.80;;;23.03;63.67;100263.31;10180636;28;96718;-87
2022/06/27 05:57:35;;;;;;;1.77;1.13;;;23.90;92.40;;;23.15;62.94;100264.03;10197140;28;97083;-88
2022/06/27 06:02:39;;;;;;;2.22;1.33;;;24.00;92.00;;;23.24;62.35;100267.94;10181468;28;96634;-87
2022/06/27 06:07:43;;;;;;;2.00;1.23;;;24.10;91.60;;;23.33;62.22;100272.91;10188195;28;96973;-87
2022/06/27 06:12:46;;;;;;;2.25;1.10;;;24.20;91.40;;;23.47;62.41;100268.78;10198110;28;97364;-86
2022/06/27 06:17:49;;;;;;;2.67;1.10;;;24.40;91.40;;;23.61;62.47;100274.66;10196810;28;96551;-87
2022/06/27 06:22:55;;;;;;;2.05;1.30;;;24.50;91.40;;;23.72;61.79;100271.03;10213586;28;97377;-88
2022/06/27 06:28:03;;;;;;;2.45;1.23;;;24.60;91.10;;;23.82;61.38;100273.88;10180382;28;96536;-89
2022/06/27 06:33:07;;;;;;;2.15;1.40;;;24.70;91.10;;;23.92;61.12;100282.13;10194897;28;96670;-88
2022/06/27 06:38:10;;;;;;;1.92;1.40;;;24.80;90.70;;;24.07;61.34;100289.63;10200410;28;98533;-87
2022/06/27 06:43:13;;;;;;;1.70;1.33;;;25.00;90.70;;;24.18;60.29;100291.38;10185199;28;96576;-89
2022/06/27 06:48:18;;;;;;;2.28;1.20;;;25.10;90.20;;;24.32;60.32;100285.53;10199439;28;96754;-87
2022/06/27 06:53:28;;;;;;;1.80;1.27;;;25.20;90.20;;;24.50;59.96;100282.47;10195938;28;96745;-86
2022/06/27 06:58:31;;;;;;;1.63;1.30;;;25.40;90.00;;;24.69;60.37;100288.34;10195207;28;97689;-87
2022/06/27 07:03:34;;;;;;;2.00;1.35;;;25.50;90.10;;;24.86;59.13;100277.34;10180302;28;96595;-87
2022/06/27 07:08:39;;;;;;;2.30;1.27;;;25.70;89.40;;;25.02;58.32;100287.25;10196364;28;96461;-86
2022/06/27 07:13:42;;;;;;;1.95;1.20;;;25.90;88.50;;;25.24;58.00;100282.53;10194289;28;97238;-86
2022/06/27 07:18:46;;;;;;;1.52;1.05;;;26.10;88.00;;;25.44;56.94;100270.97;10196237;28;97452;-87
2022/06/27 07:23:50;;;;;;;1.52;1.20;;;26.30;86.70;;;25.55;56.08;100264.50;10195103;28;96617;-86
2022/06/27 07:28:55;;;;;;;2.53;1.75;;;26.40;85.50;;;25.72;54.96;100261.56;10198207;28;96679;-86
2022/06/27 07:33:59;;;;;;;1.88;1.20;;;26.60;84.30;;;25.95;54.47;100267.66;10202466;28;96475;-87
2022/06/27 07:39:03;;;;;;;1.42;1.15;;;26.90;83.70;;;26.17;53.26;100273.72;10202142;28;96846;-88
2022/06/27 07:44:07;;;;;;;1.42;1.20;;;27.00;82.20;;;26.30;52.47;100262.28;10199359;28;98369;-88
2022/06/27 07:49:10;;;;;;;1.63;1.08;;;27.20;80.90;;;26.46;52.12;100265.06;10201890;28;97139;-88
2022/06/27 07:54:14;;;;;;;1.65;1.20;;;27.30;80.10;;;26.58;51.67;100266.44;10186147;28;96645;-87
2022/06/27 07:59:18;;;;;;;1.98;1.48;;;27.50;79.40;;;26.72;51.25;100268.63;10178848;28;96688;-88
2022/06/27 08:04:23;;;;;;;1.63;1.20;;;27.60;78.20;;;26.91;50.95;100277.88;10182129;28;97598;-88
2022/06/27 08:09:29;;;;;;;1.73;1.17;;;27.80;77.80;;;27.11;50.07;100279.78;10204726;28;96589;-89
2022/06/27 08:14:31;;;;;;;1.50;1.10;;;27.90;77.00;;;27.30;49.37;100271.84;10205174;28;96484;-89
2022/06/27 08:19:34;;;;;;;1.23;1.00;;;28.20;75.80;;;27.46;48.34;100279.69;10190548;28;96655;-90
2022/06/27 08:24:38;;;;;;;2.17;1.30;;;28.30;74.60;;;27.57;47.54;100285.13;10203001;28;96709;-89
2022/06/27 08:29:42;;;;;;;1.95;1.45;;;28.50;73.40;;;27.77;47.84;100273.31;10205953;28;97647;-87
2022/06/27 08:34:47;;;;;;;1.10;0.90;;;28.60;73.30;;;27.96;47.10;100283.34;10187194;28;96522;-89
2022/06/27 08:39:53;;;;;;;1.58;1.10;;;28.80;72.50;;;28.11;45.95;100274.25;10187152;28;96737;-88
2022/06/27 08:44:57;;;;;;;2.67;1.13;;;29.00;70.90;;;28.27;45.96;100272.25;10206416;28;97588;-89
2022/06/27 08:50:01;;;;;;;1.33;0.98;;;29.10;70.30;;;28.46;45.49;100265.03;10209063;28;97960;-87
2022/06/27 08:55:08;;;;;;;1.67;1.00;;;29.30;69.50;;;28.64;44.07;100260.78;10216059;28;98638;-89
2022/06/27 09:00:17;;;;;;;3.20;0.98;;;29.50;68.70;;;28.82;43.52;100256.53;10185892;28;96686;-87
2022/06/27 09:05:26;;;;;;;0.95;0.73;;;29.70;67.40;;;28.92;43.03;100259.19;10200482;28;97397;-89
2022/06/27 09:10:35;;;;;;;1.60;1.02;;;29.80;66.50;;;29.05;43.59;100249.50;10216765;28;96639;-89
2022/06/27 09:15:43;;;;;;;1.40;1.13;;;29.90;66.30;;;29.30;43.44;100251.94;10216211;28;96451;-89
2022/06/27 09:21:01;;;;;;;1.42;0.98;;;30.20;66.10;;;29.48;42.40;100242.16;10215074;28;96645;-89
2022/06/27 09:26:25;;;;;;;0.98;0.80;;;30.40;65.50;;;29.68;41.91;100240.31;10200281;28;96772;-88
2022/06/27 09:31:31;;;;;;;1.45;0.90;;;30.50;64.30;;;29.75;40.83;100230.63;10199332;28;96460;-87
2022/06/27 09:36:47;;;;;;;3.05;1.10;;;30.70;63.10;;;29.84;40.55;100230.78;10183180;28;96773;-89
2022/06/27 09:42:07;;;;;;;1.50;1.10;;;30.80;62.10;;;29.89;40.46;100230.72;10183216;28;96641;-88
2022/06/27 09:47:26;;;;;;;1.83;1.08;;;30.80;61.70;;;30.06;39.98;100222.78;10197861;28;96533;-90
2022/06/27 09:52:29;;;;;;;1.33;1.00;;;31.00;61.40;;;30.33;40.39;100218.56;10198182;28;96583;-90
2022/06/27 09:57:33;;;;;;;2.65;1.10;;;31.20;61.40;;;30.58;39.92;100209.91;10196930;28;96712;-90
2022/06/27 10:02:36;;;;;;;1.35;1.10;;;31.50;60.70;;;30.83;39.76;100216.09;10199331;28;97101;-90
2022/06/27 10:08:04;;;;;;;2.50;1.10;;;31.70;60.90;;;30.94;38.12;100206.53;10197320;28;96469;-89
2022/06/27 10:13:14;;;;;;;3.35;1.27;;;31.90;59.20;;;31.01;37.93;100206.97;10190350;28;96684;-89
2022/06/27 10:18:17;;;;;;;1.20;0.88;;;32.00;58.70;;;31.14;37.90;100195.19;10214565;28;96492;-89
2022/06/27 10:23:26;;;;;;;1.90;1.08;;;32.10;58.50;;;31.33;37.99;100192.38;10196424;28;96467;-89
2022/06/27 10:28:29;;;;;;;1.10;0.90;;;32.30;58.40;;;31.43;36.11;100183.13;10198045;28;96611;-88
2022/06/27 10:33:36;;;;;;;1.10;0.93;;;32.40;57.20;;;31.50;36.50;100180.75;10180826;28;96878;-89
2022/06/27 10:38:39;;;;;;;1.77;1.15;;;32.50;56.80;;;31.49;36.02;100181.88;10158729;28;96616;-89
2022/06/27 10:43:43;;;;;;;1.80;0.90;;;32.60;56.00;;;31.58;36.87;100168.22;10172945;28;96555;-91
2022/06/27 10:48:56;;;;;;;2.83;1.10;;;32.50;56.80;;;31.77;35.10;100163.38;10200646;28;97891;-90
2022/06/27 10:54:05;;;;;;;1.67;1.02;;;32.70;55.10;;;32.04;35.13;100162.53;10213913;28;96642;-88
2022/06/27 10:59:14;;;;;;;1.50;0.98;;;33.00;55.10;;;32.09;34.59;100159.66;10212355;28;96447;-91
2022/06/27 11:04:24;;;;;;;1.80;1.00;;;33.10;54.40;;;31.92;34.06;100159.50;10215618;28;96684;-87
2022/06/27 11:09:44;;;;;;;1.27;0.90;;;33.00;53.70;;;31.80;33.28;100151.00;10218271;28;96567;-89
2022/06/27 11:14:48;;;;;;;4.03;1.10;;;32.90;52.60;;;31.54;34.31;100142.50;10202925;28;96516;-89
2022/06/27 11:20:19;;;;;;;1.27;0.80;;;32.70;53.20;;;31.68;34.53;100143.28;10202943;28;96586;-88
2022/06/27 11:25:47;;;;;;;1.45;1.02;;;32.70;53.50;;;31.96;33.40;100144.81;10219492;28;96529;-90
2022/06/27 11:36:13;;;;;;;1.60;0.90;;;33.10;52.20;;;32.32;34.22;100123.88;10203229;28;96612;-89
2022/06/27 11:41:30;;;;;;;1.83;1.30;;;33.20;52.60;;;32.45;32.57;100126.59;10203159;28;96574;-88
2022/06/27 11:46:39;;;;;;;1.15;0.82;;;33.40;52.50;;;32.85;33.23;100120.28;10203442;28;96627;-89
2022/06/27 11:51:50;;;;;;;1.58;1.00;;;33.70;52.30;;;32.90;31.81;100120.97;10219916;28;96556;-89
2022/06/27 11:56:53;;;;;;;1.20;0.90;;;33.90;51.30;;;33.02;32.22;100115.66;10202257;28;96585;-90
2022/06/27 12:02:00;;;;;;;2.58;0.90;;;34.00;51.50;;;33.35;32.46;100108.91;10200786;28;98096;-91
2022/06/27 12:07:10;;;;;;;1.58;1.00;;;34.30;51.50;;;33.50;31.56;100114.00;10206277;28;96675;-92
2022/06/27 12:12:18;;;;;;;2.20;1.00;;;34.50;50.40;;;33.67;30.74;100094.72;10203485;28;96560;-91
2022/06/27 12:17:26;;;;;;;1.58;1.08;;;34.60;50.10;;;33.79;30.96;100088.56;10202934;28;97320;-89
2022/06/27 12:22:28;;;;;;;0.80;0.80;;;34.70;49.70;;;34.02;30.91;100083.69;10198838;28;98425;-92
2022/06/27 12:27:55;;;;;;;1.50;1.10;;;35.00;50.10;;;34.08;30.54;100085.13;10204154;28;96675;-91
2022/06/27 12:32:58;;;;;;;2.83;1.20;;;35.00;49.30;;;34.32;30.87;100084.59;10216570;28;98155;-91
2022/06/27 12:38:03;;;;;;;1.33;1.05;;;35.20;49.10;;;34.63;29.36;100089.84;10203074;28;96751;-91
2022/06/27 12:43:07;;;;;;;1.70;1.08;;;35.60;48.90;;;34.64;29.55;100082.38;10215048;28;97911;-86
2022/06/27 12:48:10;;;;;;;1.08;0.90;;;35.60;48.50;;;34.52;29.48;100078.34;10182283;28;98284;-89
2022/06/27 12:53:13;;;;;;;1.30;1.00;;;35.60;48.50;;;34.50;29.41;100079.84;10196748;28;97437;-90
2022/06/27 12:58:20;;;;;;;1.13;0.98;;;35.60;47.40;;;34.66;29.81;100072.59;10187891;28;96713;-88
2022/06/27 13:03:27;;;;;;;1.75;1.30;;;35.60;48.30;;;34.44;29.18;100075.66;10183617;28;98039;-90
2022/06/27 13:08:30;;;;;;;1.13;0.95;;;35.60;47.60;;;34.04;29.13;100071.19;10210314;28;97475;-91
2022/06/27 13:13:34;;;;;;;2.15;1.00;;;35.20;47.70;;;34.04;29.82;100068.44;10212814;28;96633;-89
2022/06/27 13:18:38;;;;;;;2.45;0.90;;;35.10;47.90;;;34.14;29.74;100067.28;10198074;28;98637;-88
2022/06/27 13:23:41;;;;;;;2.45;1.83;;;35.10;47.70;;;34.12;28.26;100064.03;10193399;28;96964;-87
2022/06/27 13:29:04;;;;;;;2.40;1.33;;;35.20;46.70;;;34.15;28.96;100063.38;10213828;28;96605;-88
2022/06/27 13:34:07;;;;;;;1.65;1.15;;;35.10;47.10;;;34.30;28.90;100062.81;10195957;28;97236;-87
2022/06/27 13:39:30;;;;;;;1.60;0.90;;;35.30;47.30;;;34.06;28.94;100057.06;10187330;28;98693;-84
2022/06/27 13:44:34;;;;;;;1.10;0.95;;;35.10;47.10;;;33.58;29.47;100066.34;10217601;28;96824;-84
2022/06/27 13:49:37;;;;;;;1.05;0.88;;;34.70;47.10;;;33.62;29.98;100055.50;10222501;28;96714;-85
2022/06/27 13:54:40;;;;;;;1.05;0.93;;;34.60;47.60;;;33.88;29.88;100049.94;10196445;28;97457;-87
2022/06/27 13:59:43;;;;;;;1.50;1.20;;;34.80;47.90;;;33.76;29.83;100047.84;10194531;28;96684;-88
2022/06/27 14:04:46;;;;;;;0.80;0.80;;;34.70;47.70;;;33.65;30.73;100035.53;10194428;28;97505;-88
2022/06/27 14:09:50;;;;;;;1.35;1.13;;;34.60;48.00;;;33.29;30.88;100037.50;10197913;28;98539;-90
2022/06/27 14:14:57;;;;;;;1.08;0.70;;;34.40;48.00;;;33.15;30.50;100036.00;10169948;28;96514;-88
2022/06/27 14:20:01;;;;;;;1.08;0.98;;;34.20;48.10;;;33.46;30.42;100033.13;10181906;28;96693;-88
2022/06/27 14:25:05;;;;;;;1.05;0.73;;;34.40;48.10;;;33.74;29.88;100039.91;10176076;28;97232;-89
2022/06/27 14:30:08;;;;;;;1.35;0.98;;;34.60;47.70;;;33.81;29.46;100023.69;10196403;28;97488;-88
2022/06/27 14:35:11;;;;;;;1.73;1.25;;;34.70;47.30;;;34.07;29.37;100029.19;10178048;28;97737;-88
2022/06/27 14:40:14;;;;;;;2.00;1.20;;;34.90;47.20;;;34.35;29.68;100021.28;10218133;28;96643;-87
2022/06/27 14:45:17;;;;;;;1.23;0.82;;;35.10;47.40;;;34.53;27.87;100004.69;10201987;28;98953;-88
2022/06/27 14:50:23;;;;;;;2.05;0.95;;;35.40;46.50;;;34.70;28.53;99998.25;10202600;28;98753;-89
2022/06/27 14:55:26;;;;;;;1.90;1.08;;;35.60;46.50;;;34.92;28.21;100002.66;10201995;28;97442;-87
2022/06/27 15:00:30;;;;;;;1.48;0.93;;;35.80;46.30;;;35.12;27.22;99980.59;10212769;28;96655;-86
2022/06/27 15:05:33;;;;;;;1.20;0.90;;;36.00;45.80;;;34.97;27.32;99985.94;10227681;28;96553;-87
2022/06/27 15:15:57;;;;;;;2.95;1.10;;;35.90;45.40;;;34.91;27.66;99987.22;10203514;28;97052;-85
2022/06/27 15:21:01;;;;;;;1.33;1.05;;;35.80;45.60;;;34.80;27.94;99979.34;10199954;28;97676;-85
2022/06/27 15:26:04;;;;;;;1.40;0.98;;;35.80;45.80;;;34.94;27.25;99984.63;10221509;28;96617;-87
2022/06/27 15:31:08;;;;;;;0.85;0.70;;;35.80;45.70;;;35.22;27.01;99978.59;10216260;28;97698;-89
2022/06/27 15:36:11;;;;;;;1.70;1.10;;;36.00;45.50;;;35.29;26.94;99987.13;10210038;28;99920;-87
2022/06/27 15:41:14;;;;;;;0.80;0.80;;;36.20;45.20;;;35.29;27.05;99984.38;10216355;28;98433;-88
2022/06/27 15:46:18;;;;;;;1.55;0.95;;;36.20;45.10;;;35.10;27.38;99984.84;10218619;28;96702;-87
2022/06/27 15:51:23;;;;;;;1.48;1.05;;;36.10;45.00;;;35.26;27.30;99990.56;10199093;28;98086;-90
2022/06/27 15:56:26;;;;;;;1.60;0.95;;;36.10;45.20;;;35.25;27.05;99978.69;10227451;28;97731;-86
2022/06/27 16:01:30;;;;;;;1.23;1.10;;;36.20;45.70;;;35.42;27.58;99980.50;10202056;28;97625;-85
2022/06/27 16:06:33;;;;;;;1.20;1.10;;;36.20;45.40;;;35.34;27.24;99976.69;10218618;28;96558;-85
2022/06/27 16:11:36;;;;;;;1.52;0.95;;;36.20;45.10;;;35.33;27.31;99964.03;10201196;28;97227;-86
2022/06/27 16:16:38;;;;;;;1.20;0.90;;;36.20;45.00;;;35.38;26.90;99972.06;10199585;28;96714;-87
2022/06/27 16:21:42;;;;;;;1.65;0.90;;;36.20;45.00;;;35.34;26.23;99976.69;10198847;28;96644;-87
2022/06/27 16:26:45;;;;;;;4.70;1.10;;;36.20;44.60;;;35.29;26.76;99970.56;10217606;28;96463;-87
2022/06/27 16:31:47;;;;;;;1.73;1.10;;;36.20;44.50;;;35.09;27.15;99966.69;10200136;28;96617;-86
2022/06/27 16:36:51;;;;;;;0.98;0.70;;;36.10;44.80;;;34.96;27.05;99976.81;10199412;28;97448;-87
2022/06/27 16:47:19;;;;;;;1.17;0.90;;;35.80;44.60;;;34.60;29.08;99975.41;10202619;28;96569;-87
2022/06/27 16:52:22;;;;;;;1.15;0.80;;;35.50;45.40;;;34.48;27.91;99983.59;10206456;28;96637;-87
2022/06/27 16:57:26;;;;;;;1.17;0.80;;;35.40;45.40;;;34.33;27.08;99982.19;10215115;28;96892;-86
2022/06/27 17:02:29;;;;;;;1.27;0.63;;;35.40;45.10;;;34.26;28.38;99972.84;10216579;28;96377;-87
2022/06/27 17:07:32;;;;;;;1.08;0.73;;;35.30;45.30;;;34.24;28.28;99975.09;10213455;28;98635;-86
2022/06/27 17:12:35;;;;;;;1.48;0.85;;;35.20;45.40;;;34.12;28.90;99970.28;10199479;28;96637;-87
2022/06/27 17:17:39;;;;;;;1.08;0.98;;;35.10;45.60;;;34.03;29.33;99969.50;10215921;28;96436;-87
2022/06/27 17:22:42;;;;;;;1.35;0.90;;;35.00;46.00;;;33.85;29.62;99971.50;10189421;28;96794;-86
2022/06/27 17:27:45;;;;;;;1.13;0.90;;;34.90;46.10;;;33.68;29.67;99969.59;10193003;28;98612;-87
2022/06/27 17:32:48;;;;;;;1.30;0.80;;;34.70;46.20;;;33.56;29.47;99969.44;10195321;28;96644;-87
2022/06/27 17:37:51;;;;;;;0.98;0.73;;;34.60;46.30;;;33.40;30.09;99965.56;10214020;28;99623;-87
2022/06/27 17:42:54;;;;;;;0.90;0.77;;;34.40;46.50;;;33.17;30.17;99963.00;10199168;28;96643;-87
2022/06/27 17:47:58;;;;;;;1.48;0.90;;;34.30;46.80;;;32.96;30.87;99962.81;10215206;28;96679;-86
2022/06/27 17:53:01;;;;;;;1.38;0.88;;;34.10;47.60;;;32.72;32.26;99963.25;10214174;28;96795;-87
2022/06/27 17:58:04;;;;;;;1.85;1.10;;;33.90;47.90;;;32.48;33.13;99968.38;10211553;28;96595;-87
2022/06/27 18:03:07;;;;;;;2.90;1.17;;;33.60;48.90;;;32.22;34.19;99971.81;10210501;28;96627;-87
2022/06/27 18:08:09;;;;;;;2.50;1.60;;;33.30;49.60;;;31.89;35.23;99973.28;10194399;28;96720;-87
2022/06/27 18:13:13;;;;;;;2.15;1.27;;;32.90;50.40;;;31.56;36.03;99979.03;10195180;28;96996;-87
2022/06/27 18:18:16;;;;;;;1.88;1.10;;;32.60;51.10;;;31.26;36.34;99974.31;10203695;28;97690;-87
2022/06/27 18:23:19;;;;;;;2.03;1.20;;;32.20;51.50;;;30.96;36.86;99981.28;10195486;28;96809;-87
2022/06/27 18:28:22;;;;;;;2.80;1.48;;;31.90;52.00;;;30.64;37.00;99988.50;10205098;28;96656;-87
2022/06/27 18:33:26;;;;;;;2.95;1.30;;;31.60;52.30;;;30.33;38.78;99996.53;10193598;28;97567;-87
2022/06/27 18:38:29;;;;;;;3.65;1.30;;;31.30;53.60;;;29.96;39.13;100006.50;10223090;28;98499;-87
2022/06/27 18:43:31;;;;;;;2.45;1.23;;;31.00;53.70;;;29.65;38.69;100010.91;10236941;28;96636;-86
2022/06/27 18:48:34;;;;;;;3.47;1.35;;;30.70;53.80;;;29.38;39.46;100009.63;10193148;28;96796;-86
2022/06/27 18:53:37;;;;;;;1.80;1.17;;;30.30;54.30;;;29.05;39.92;100020.50;10195454;28;97480;-87
2022/06/27 18:58:42;;;;;;;2.38;1.40;;;30.00;54.80;;;28.79;40.61;100032.88;10194137;28;96986;-86
2022/06/27 19:03:46;;;;;;;2.22;1.20;;;29.70;55.30;;;28.56;40.46;100045.44;10193802;28;97432;-87
2022/06/27 19:08:49;;;;;;;1.85;1.17;;;29.50;55.20;;;28.39;41.32;100051.38;10192913;28;96818;-87
2022/06/27 19:13:52;;;;;;;2.15;1.25;;;29.30;55.60;;;28.22;41.47;100061.88;10174350;28;98622;-87
2022/06/27 19:18:58;;;;;;;2.63;1.40;;;29.10;56.20;;;28.05;42.58;100072.44;10191714;28;96753;-87
2022/06/27 19:24:02;;;;;;;3.17;1.50;;;28.90;56.70;;;27.82;43.45;100079.44;10197212;28;96541;-87
2022/06/27 19:29:06;;;;;;;1.58;1.15;;;28.70;57.30;;;27.63;43.89;100087.47;10201383;28;97488;-87
2022/06/27 19:34:09;;;;;;;2.25;1.27;;;28.50;57.80;;;27.42;44.06;100092.25;10215744;28;97527;-87
2022/06/27 19:39:12;;;;;;;2.25;1.30;;;28.30;58.20;;;27.19;45.21;100093.75;10175786;28;96663;-87
2022/06/27 19:44:15;;;;;;;3.85;1.60;;;28.10;58.90;;;26.98;45.11;100098.41;10174208;28;97436;-87
2022/06/27 19:49:18;;;;;;;1.55;1.30;;;27.90;58.90;;;26.80;45.54;100108.03;10157693;28;96700;-87
2022/06/27 19:54:21;;;;;;;1.65;1.45;;;27.70;59.40;;;26.63;46.36;100107.56;10191926;28;97337;-87
2022/06/27 19:59:24;;;;;;;3.00;1.70;;;27.60;60.40;;;26.49;46.76;100103.75;10176090;28;97549;-87
2022/06/27 20:04:27;;;;;;;2.13;1.60;;;27.40;60.40;;;26.30;47.14;100108.94;10174594;28;98357;-87
2022/06/27 20:09:30;;;;;;;2.40;1.42;;;27.20;60.80;;;26.15;47.37;100117.94;10175671;28;96654;-87
2022/06/27 20:14:33;;;;;;;4.15;1.38;;;27.10;61.20;;;25.97;48.09;100113.00;10175479;28;96676;-87
2022/06/27 20:19:36;;;;;;;2.70;1.40;;;26.90;61.40;;;25.82;48.55;100111.09;10176314;28;96966;-87
2022/06/27 20:24:40;;;;;;;2.40;1.70;;;26.70;62.20;;;25.67;48.93;100125.50;10174349;28;96805;-88
2022/06/27 20:29:43;;;;;;;2.85;1.50;;;26.60;62.50;;;25.54;49.33;100113.19;10176943;28;97052;-94
2022/06/27 20:34:46;;;;;;;1.60;1.30;;;26.40;62.80;;;25.36;49.60;100113.69;10202243;28;97131;-88
2022/06/27 20:39:49;;;;;;;2.50;1.50;;;26.30;63.00;;;25.20;50.33;100122.91;10200479;28;96658;-93
2022/06/27 20:44:52;;;;;;;1.90;1.38;;;26.10;63.50;;;25.06;50.33;100128.00;10173176;28;97935;-88
2022/06/27 20:49:55;;;;;;;1.98;1.40;;;26.00;64.30;;;24.90;50.89;100129.81;10188831;28;97523;-96
2022/06/27 20:54:59;;;;;;;2.08;1.48;;;25.80;64.30;;;24.83;50.84;100140.09;10203562;28;96647;-93
2022/06/27 21:00:11;;;;;;;2.33;1.20;;;25.70;64.60;;;24.69;51.04;100137.00;10206791;28;97636;-95
2022/06/27 21:05:16;;;;;;;5.10;1.80;;;25.60;64.90;;;24.61;51.90;100147.56;10209713;28;97233;-94
2022/06/27 21:15:41;;;;;;;2.30;1.42;;;25.40;66.10;;;24.38;52.26;100155.00;10176563;28;96796;-93
2022/06/27 21:20:45;;;;;;;1.75;1.30;;;25.30;65.40;;;24.32;52.33;100158.72;10171076;28;96597;-93